This demonstration page uses our WeatherBlox Daily Observations layout. Learn more.

Left ArrowRight Arrow

38.83388, -104.82136

Hourly Observations for April 3, 2022

Temp ( °F °C ) Dew Point ( °F °C ) Humidity (%) Winds ( mph kmh ) Pressure ( in mb ) Visibility ( mi km ) Precip ( " mm )
12:58 am 00:58 Clear 52 11 20 -6.4 29 29 WSW 7 11 N/A 10 16 0.00 0.00
1:58 am 01:58 Clear 51 10.3 21 -6.1 31 31 SW 7 11 N/A 10 16 0.00 0.00
2:58 am 02:58 Clear 48 9.1 23 -5.2 36 36 SW 3 6 N/A 10 16 0.00 0.00
3:58 am 03:58 Mostly Cloudy 49 9.3 22 -5.4 35 35 WSW 8 13 N/A 10 16 0.00 0.00
4:58 am 04:58 Mostly Cloudy 49 9.2 22 -5.5 35 35 SW 5 7 N/A 10 16 0.00 0.00
5:58 am 05:58 Mostly Cloudy 49 9.2 21 -5.9 34 34 W 12 19 N/A 10 16 0.00 0.00
6:58 am 06:58 Mostly Cloudy 46 7.5 23 -4.9 41 41 W 14 22 N/A 10 16 0.00 0.00
7:58 am 07:58 Cloudy 44 6.7 23 -5 43 43 W 15 24 N/A 10 16 0.00 0.00
8:58 am 08:58 Mostly Cloudy 44 6.8 22 -5.5 41 41 WNW 13 20 N/A 10 16 0.00 0.00
9:58 am 09:58 Mostly Cloudy 44 6.8 22 -5.5 41 41 WNW 13 20 N/A 10 16 0.00 0.00
10:58 am 10:58 Cloudy 46 7.5 23 -5.2 40 40 WNW 12 19 N/A 10 16 0.00 0.00
11:58 am 11:58 Cloudy 47 8.3 27 -2.6 47 47 W 10 17 N/A 10 16 0.00 0.00
12:58 pm 12:58 Cloudy 45 7 30 -1.2 56 56 W 9 15 N/A 10 16 0.00 0.00
1:00 pm 13:00 Cloudy with Light Rain 45 7 30 -1 57 57 W 12 19 N/A 10 16 0.00 0.00
1:29 pm 13:29 Cloudy 46 8 32 0 57 57 WNW 7 11 N/A 10 16 0.00 0.00
1:58 pm 13:58 Cloudy 42 5.3 34 1.2 75 75 WNW 14 22 N/A 10 16 0.00 0.00
2:06 pm 14:06 Cloudy with Light Rain 41 5 34 1 76 76 Calm N/A 10 16 0.00 0.00
2:37 pm 14:37 Cloudy 43 6 36 2 76 76 NW 9 15 N/A 10 16 0.00 0.00
2:58 pm 14:58 Mostly Cloudy 42 5.8 37 2.6 80 80 NW 17 28 N/A 10 16 0.00 0.00
3:58 pm 15:58 Cloudy 42 5.4 36 2.4 81 81 NNW 5 7 N/A 10 16 0.00 0.00
4:58 pm 16:58 Cloudy 44 6.6 30 -1.3 57 57 ESE 9 15 N/A 10 16 0.00 0.00
5:37 pm 17:37 Cloudy 43 6 28 -2 57 57 SSE 14 22 N/A 10 16 0.00 0.00
5:58 pm 17:58 Cloudy 43 6.3 27 -2.6 53 53 SSE 18 30 N/A 10 16 0.00 0.00
6:58 pm 18:58 Cloudy 46 8 24 -4.5 41 41 SSW 6 9 N/A 10 16 0.00 0.00
7:58 pm 19:58 Cloudy 43 6.1 28 -2 56 56 SSE 13 20 N/A 10 16 0.00 0.00
8:07 pm 20:07 Cloudy 43 6 28 -2 57 57 S 16 26 N/A 10 16 0.00 0.00
8:58 pm 20:58 Cloudy 40 4.7 32 0.1 72 72 W 5 7 N/A 10 16 0.00 0.00
9:58 pm 21:58 Cloudy 39 4.1 32 0.1 75 75 W 6 9 N/A 10 16 0.00 0.00
10:58 pm 22:58 Cloudy 38 3.6 33 0.3 79 79 Calm N/A 10 16 0.00 0.00

Powered by AerisWeather